Airfield :
LOGIN :

Register | Disclaimer

   EN    FR    IT 

 










Legend :    VFR   Marginal VFR   IFR   Intensive IFR   Very Intensive IFR
Visi :
Ceiling :
>= 8 km
>= 3000ft
5 to 8 km
1000 to 3000 ft
1500m to 5 km
500 to 1000 ft
800 to 1500m
200 to 500 ft
< 800m
< 200 ft
Symbols :   Thunderstorms  Fog  Heavy snow  Heavy precipitations  Wind > 20 kt
SIGMETs :     Misc.  Thunderstorms  Icing  Turbulence  Mountain Waves  Volcanic Ashes






- Airport Elevation : 200 ft


EBBL - Klein Brogel AB

CURRENT METAR :
  • 101325Z 20011KT 9999 SCT190 06/01 Q1022 BLU BLU

EXPIRED METARs :
  • 101255Z 20009KT 9999 SCT240 06/01 Q1023 BLU BLU
  • 101225Z 21011KT 9999 SCT240 06/01 Q1023 BLU BLU
  • 101155Z 21010KT 9999 SCT240 05/01 Q1024 BLU BLU
  • 101125Z 20009KT 9999 SCT240 05/01 Q1024 BLU BLU
  • 101055Z 20008KT 9999 SCT240 05/02 Q1025 BLU BLU

TAF TAF EBBL
Valid from the 10 at 13:00 until the 10 at 22:00 UTC


101141Z 1013/1022 19010G20KT 9999 BKN200
TEMPO 1013/1016 19010G25KT
BECMG 1015/1017 19015G30KT BKN070
PROB30
TEMPO 1018/1022 19020G35KT -RA



MET'MAP, your aeronautical weather chart ! - Copyright ORBIFLY December 2007 - Disclaimer

ORBIFLY MET'MAP TEAM :

Programming & Development : Alexandra Zaïnal
Concept & original design : Baudouin d'Aumeries
Assistance for programming : Marc-Olivier Méhu
Technical & hardware support : Manuel Goepfert

Contact : metmap@orbifly.com




SOURCES & CREDITS :

   NOAA